Portada
METAR-TAF:

METAR-TAF

Aeropuertos :

Aeropuerto de Rabat-Salé

Rabat, Marruecos

latitud: 34-03N, longitud: 006-46W, altitud: 84 m

Observación

El informe se hizo hace 35 minutos, a las 12:00 UTC
Viento 9 kt del oeste, variando entre suroeste y norte-noroeste
Temperatura 23°C
Humedad 57%
Presión 1016 hPa
Visibilidad: 5000 m
Cielo nuboso a una altura de 3300 ft

METAR: GMME 261200Z 27009KT 220V330 5000 BKN033 23/14 Q1016 NOSIG

Hora: 13:35 (12:35 UTC)

Pronóstico

El informe se hizo hace 1 hora y 35 minutos, a las 11:00 UTC
Pronóstico válido del 26 a las 12 UTC al 27 a las 18 UTC
Viento 10 kt del oeste
Visibilidad: 5000 m
Nubes dispersas a una altura de 2000 ft
Temporalmente
del 26 a las 18 UTC al 26 a las 23 UTC
Viento 8 kt del sur

TAF: GMME 261100Z 2612/2718 27010KT 5000 SCT020 TEMPO 2618/2623 18008KT

Observaciones y pronósticos meteorológicos de más de 4000 aeropuertos (mensajes METAR y TAF).

Los puntos amarillos y rojos representan las estaciones disponibles.

Ponga el ratón en el punto deseado para ver el nombre de la estación.

Haga clic para ver las observaciones y los pronósticos meteorológicos.

Para cambiar el mapa : haga clic en los botones verdes con una cruz de color negro para hacer un zoom, en el botón verde con un guión para alejar o en las flechas verdes para mapas adyacentes.


METAR-TAF: